Weather observations for the past three days for
Elkhart, Elkhart-Morton County Airport
Metric (Imperial)
Date Time (cdt) Wind (kph) Vis. (km) Weather Sky Cond. Temperature (ºC) Relative Humidity Wind Chill (°C) Heat Index (°C) Pressure Precipitation (cm)
Air Dwpt 6 hour altimeter (cm) sea level (mb) 1 hr 3 hr 6 hr
Max. Min.
08 18:35 NE 22 G 31 16.09 Fair CLR 25.6 1.7 21% 25 75.97 0.0
08 18:15 N 26 G 41 16.09 Fair CLR 25.8 0.6 19% 25 75.95 0.0
08 17:55 N 39 16.09 Fair and Breezy CLR 26.2 0.8 19% 26 75.97 0.0
08 17:35 NW 19 G 44 16.09 Fair CLR 26.2 0.6 19% 26 75.97 0.0
08 17:15 N 26 G 43 16.09 Fair CLR 26.7 2.6 21% 26 76 0.0
08 16:55 N 13 G 41 16.09 Fair CLR 26.1 1.9 21% 26 76 0.0
08 16:35 NW 28 G 48 16.09 Fair CLR 26.6 1.1 19% 26 76 0.0
08 16:15 N 28 G 43 16.09 Fair CLR 26.6 2.2 21% 26 76.02 0.0
08 15:55 N 28 G 37 16.09 Fair CLR 26.4 2.9 22% 26 76.02 0.0
08 15:35 N 24 G 48 16.09 Partly Cloudy SCT080 26.1 3.2 23% 26 76.05 0.0
08 15:15 N 20 G 41 16.09 Partly Cloudy SCT080 26.2 3.3 23% 26 76.05 0.0
08 14:55 NW 17 G 31 16.09 Fair CLR 25.3 4.1 25% 25 76.07 0.0
08 14:35 NE 17 G 33 16.09 Fair CLR 25.3 4.4 26% 25 76.07 0.0
08 14:15 N 20 G 44 16.09 Fair CLR 25.1 3.9 25% 25 76.1 0.0
08 13:35 N 22 G 39 16.09 Fair CLR 24.1 5.1 29% 25 76.1 0.0
08 13:15 N 30 G 41 16.09 Fair CLR 23.7 5.2 30% 76.12 0.0
08 12:55 N 30 G 37 16.09 Fair CLR 23.2 5.6 24 10.8 32% 76.12 0.0
08 12:15 N 33 G 41 16.09 Fair and Breezy CLR 23 5.3 32% 76.15 0.0
08 11:55 N 30 G 46 16.09 Fair CLR 22.9 5.3 32% 76.12 0.0
08 11:35 N 33 G 44 16.09 Fair and Breezy CLR 22.6 5 32% 76.12 0.0
08 11:15 N 33 16.09 Fair and Breezy CLR 22.4 4.7 32% 76.12 0.0
08 10:55 N 33 G 39 16.09 Fair and Breezy CLR 22.4 4.6 31% 76.1 0.0
08 10:35 N 37 G 43 16.09 Fair and Breezy CLR 21.9 4.7 33% 76.12 0.0
08 10:15 N 31 G 44 16.09 Fair CLR 20.9 5.1 36% 76.1 0.0
08 09:55 N 33 16.09 Fair and Breezy CLR 20.3 4.8 36% 76.1 0.0
08 09:35 N 31 16.09 Fair CLR 19.4 4.6 38% 76.07 0.0
08 09:15 N 24 G 30 16.09 Fair CLR 18.4 5 41% 76.07 0.0
08 08:55 N 28 16.09 Fair CLR 16.9 4.7 45% 76.07 0.0
08 08:35 N 28 16.09 Fair CLR 15.9 4.4 47% 76.05 0.0
08 08:15 N 24 16.09 Fair CLR 15.3 4 47% 76.05 0.0
08 07:55 N 24 G 33 16.09 Fair CLR 14.2 3.5 49% 76.02 0.0
08 07:35 N 17 16.09 Fair CLR 11.9 2.5 53% 76 0.0
08 07:15 NW 15 16.09 Fair CLR 11 1.6 53% 75.97 0.0
08 06:55 NW 20 16.09 Fair CLR 12.4 0.9 14.9 11.9 46% 75.95 0.0
08 06:35 W 24 16.09 Fair CLR 13.5 0.4 41% 75.95 0.0
08 06:15 W 19 16.09 Fair CLR 13.9 0.2 39% 75.92 0.0
08 05:55 W 19 16.09 Fair CLR 13.4 0.4 41% 75.92 0.0
08 05:35 W 20 16.09 Fair CLR 13.3 0.2 41% 75.92 0.0
08 05:15 W 15 16.09 Fair CLR 13.8 -0.1 39% 75.92 0.0
08 04:55 SW 26 16.09 Fair CLR 14.9 -0.5 35% 75.9 0.0
08 04:35 SW 30 16.09 Fair CLR 14.5 0.2 38% 75.9 0.0
08 04:15 SW 26 16.09 Fair CLR 14 0.9 41% 75.87 0.0
08 03:55 SW 28 16.09 Fair CLR 12.9 1.5 46% 75.9 0.0
08 03:35 W 26 16.09 Partly Cloudy SCT120 12.8 1.3 46% 75.9 0.0
08 03:15 SW 28 16.09 Partly Cloudy SCT120 14 0.2 39% 75.9 0.0
08 02:55 SW 30 16.09 Fair CLR 14.1 0.2 39% 75.9 0.0
08 02:35 SW 28 16.09 Fair CLR 12.7 0.8 44% 75.92 0.0
08 02:15 SW 24 16.09 Fair CLR 12.8 0.6 44% 75.95 0.0
08 01:55 SW 24 16.09 Fair CLR 13.5 0.8 42% 75.97 0.0
08 01:35 SW 24 16.09 Fair CLR 13 1 44% 76 0.0
08 01:15 SW 22 16.09 Fair CLR 12.5 1.1 46% 76 0.0
08 00:55 SW 22 16.09 Fair CLR 11.8 1.4 24.6 10.7 49% 76 0.0
08 00:35 SW 22 16.09 Fair CLR 11 1.9 54% 76.05 0.0
08 00:15 SW 19 16.09 Fair CLR 11.1 1.7 53% 76.05 0.0
07 23:55 SW 20 16.09 Fair CLR 11.5 1.9 52% 76.05 0.0
07 23:35 SW 20 16.09 Fair CLR 11.3 2.2 54% 76.05 0.0
07 23:15 SW 19 16.09 Fair CLR 11.4 2.6 55% 76.07 0.0
07 22:55 S 19 16.09 Fair CLR 12.2 2.9 53% 76.07 0.0
07 22:35 S 15 16.09 Fair CLR 11.7 2.7 54% 76.07 0.0
07 22:15 S 19 16.09 Fair CLR 13.5 1.8 45% 76.07 0.0
07 21:55 S 19 16.09 Fair CLR 14 1.8 44% 76.05 0.0
07 21:35 S 19 16.09 Fair CLR 14.9 2.1 42% 76.02 0.0
07 21:15 S 19 16.09 Fair CLR 15 3.1 45% 76.02 0.0
07 20:55 S 19 16.09 Fair CLR 16.3 2.9 41% 76 0.0
07 20:35 S 20 16.09 Fair CLR 18 3.1 37% 76 0.0
07 20:15 S 9 16.09 Fair CLR 19.9 0.8 28% 76 0.0
07 19:55 S 11 16.09 Fair CLR 22.5 -4.3 16% 76 0.0
07 19:35 S 11 16.09 Fair CLR 23.4 -5.4 14% 75.97 0.0
07 19:15 SW 13 16.09 Fair CLR 24 -6 13% 24 75.97 0.0
07 18:55 S 13 16.09 Fair CLR 24.1 -6.1 25.9 20.7 13% 24 76 0.0
07 18:15 S 7 16.09 Fair CLR 24.4 -6.8 12% 24 76 0.0
07 17:55 S 7 16.09 Fair CLR 24.5 -6.8 12% 24 76 0.0
07 17:35 SW 9 16.09 Fair CLR 25.1 -6.8 11% 25 76 0.0
07 16:55 SW 7 16.09 Fair CLR 24.9 -7.6 11% 24 76.02 0.0
07 16:35 SW 9 16.09 Fair CLR 25.2 -6.6 12% 25 76.05 0.0
07 16:15 NW 9 16.09 Fair CLR 24.2 -7.2 12% 24 76.1 0.0
07 15:55 Calm 16.09 Fair CLR 23.9 -7.6 12% 24 76.1 0.0
07 15:35 SE 11 8.05 Fair with Haze CLR 24.2 -6.9 12% 24 76.12 0.0
07 15:15 W 15 16.09 Fair CLR 23.9 -6.8 12% 24 76.15 0.0
07 14:55 W 13 16.09 Fair CLR 23.8 -5.4 14% 76.17 0.0
07 14:35 W 15 16.09 Fair CLR 23.5 -5.7 14% 76.2 0.0
07 14:15 W 13 16.09 Fair CLR 22.6 -5.5 15% 76.23 0.0
07 13:55 N 9 16.09 Fair CLR 22.2 -7.2 13% 76.25 0.0
07 13:35 S 17 16.09 Fair CLR 22.9 -1.1 20% 76.25 0.0
07 13:15 SW 11 16.09 Fair CLR 21.8 -2.4 20% 76.28 0.0
07 12:55 SW 19 G 26 16.09 Fair CLR 21.3 -2.5 22 2.5 20% 76.3 0.0
07 12:35 W 20 16.09 Fair CLR 21.7 -1.9 21% 76.33 0.0
07 12:15 SW 20 16.09 Fair CLR 20.5 -0.6 24% 76.35 0.0
07 11:55 W 24 G 35 16.09 Fair CLR 19.7 -0.4 26% 76.35 0.0
07 11:35 SW 22 16.09 Fair CLR 19.5 1.5 30% 76.38 0.0
07 11:15 W 26 16.09 Fair CLR 18.3 1.7 33% 76.38 0.0
07 10:55 W 28 16.09 Fair CLR 17.4 3.1 39% 76.4 0.0
07 10:35 W 22 16.09 Fair CLR 15.5 4.7 49% 76.43 0.0
07 10:15 W 20 16.09 Fair CLR 14 5.5 57% 76.43 0.0
07 09:55 W 24 16.09 Fair CLR 12.2 4.7 60% 76.45 0.0
07 09:35 W 20 16.09 Fair CLR 10.7 4 64% 76.45 0.0
07 09:15 W 17 16.09 Fair CLR 9.1 3.3 67% 7 76.45 0.0
07 08:35 W 20 16.09 Fair CLR 6.9 2.1 72% 4 76.48 0.0
07 08:15 W 19 16.09 Fair CLR 5.3 1.5 77% 2 76.48 0.0
07 07:55 W 24 16.09 Fair CLR 3.8 0.4 79% -1 76.48 0.0
07 07:35 W 24 16.09 Fair CLR 2.9 0 81% -2 76.48 0.0
07 07:15 W 24 16.09 Fair CLR 2.6 -0.1 83% -2 76.48 0.0
07 06:55 W 22 16.09 Fair CLR 2.5 -0.1 4.7 1.7 83% -2 76.48 0.0
07 06:35 W 22 16.09 Fair CLR 2.2 0.1 86% -2 76.48 0.0
07 06:15 W 20 16.09 Fair CLR 1.8 0.1 89% -3 76.5 0.0
07 05:55 SW 22 16.09 Fair CLR 2.2 0.3 87% -2 76.5 0.0
07 05:35 SW 26 16.09 Fair CLR 2.3 0.7 89% -3 76.5 0.0
07 05:15 SW 28 16.09 Fair CLR 2 0.7 91% -3 76.5 0.0
07 04:55 SW 22 16.09 Fair CLR 1.9 0.7 92% -3 76.56 0.0
07 04:35 W 22 16.09 Fair CLR 1.8 0.8 93% -3 76.56 0.0
07 04:15 SW 20 16.09 Fair CLR 2 1.1 94% -2 76.56 0.0
07 03:55 SW 20 16.09 Fair CLR 2.3 1.4 94% -2 76.58 0.0
07 03:35 SW 19 16.09 Fair CLR 2.5 1.6 94% -1 76.61 0.0
07 03:15 SW 17 16.09 Fair CLR 2.4 1.6 95% -1 76.61 0.0
07 02:55 SW 17 16.09 Fair CLR 2.8 1.8 93% -1 76.63 0.0
07 02:35 SW 15 16.09 Fair CLR 2.7 1.5 92% -1 76.66 0.0
07 02:15 SW 15 16.09 Fair CLR 2.8 1.6 92% -1 76.66 0.0
07 01:55 SW 11 16.09 Fair CLR 2.1 1.3 95% -1 76.68 0.0
07 01:35 SW 11 16.09 Fair CLR 3.1 2.1 93% 0 76.71 0.0
07 01:15 SW 9 16.09 Partly Cloudy SCT021 3.7 2.6 93% 2 76.71 0.0
07 00:55 SW 7 16.09 Overcast OVC021 4.7 3.5 6 4 92% 3 76.71 0.0 0.36
07 00:35 W 9 16.09 Overcast OVC021 4.8 3.4 91% 3 76.71 0.0
07 00:15 Calm 16.09 Overcast OVC023 4.6 2.9 89% 76.71 0.0
06 23:35 W 9 16.09 Overcast SCT013 SCT022 OVC029 4.5 3 90% 3 76.71 0.0
06 23:15 W 11 16.09 Overcast BKN013 OVC029 4.5 3 90% 2 76.73 0.0
06 22:55 W 11 16.09 Overcast SCT013 OVC027 4.3 3 91% 2 76.73 0.0
06 22:35 SW 7 16.09 Overcast OVC027 4.2 2.9 91% 3 76.71 0.0
06 22:15 W 9 16.09 Overcast OVC027 4.2 2.8 91% 2 76.71 0.0
06 21:55 SW 9 16.09 Overcast OVC029 4.2 3 92% 2 76.71 0.0 0.36
06 21:35 SW 9 16.09 Overcast OVC033 4 2.8 92% 2 76.68 0.0
06 21:15 SW 7 16.09 Mostly Cloudy SCT035 BKN050 BKN110 4.1 3 93% 3 76.68 0.0
06 20:55 SW 6 16.09 Light Rain SCT029 SCT045 OVC050 4.3 2.7 89% 76.66 0.0 0.1
06 20:35 W 7 16.09 Light Rain SCT026 BKN042 OVC050 4.3 2.5 88% 3 76.66 0.0 0.1
06 20:15 Calm 5.63 Rain Fog/Mist BKN024 BKN032 OVC040 4.7 3.6 93% 76.58 0.0 0.1
06 19:55 N 6 8.05 Rain Fog/Mist SCT017 OVC024 4.5 3.3 92% 76.61 0.0 0.23
06 19:35 N 13 6.44 Light Rain Fog/Mist BKN019 OVC024 4.9 3.3 90% 2 76.61 0.0 0.13
06 19:15 NW 15 8.05 Light Rain Fog/Mist BKN020 OVC027 5.6 3 84% 3 76.61 0.0 0.05
06 18:35 NE 9 16.09 Overcast OVC026 6.7 2.2 73% 5 76.53 0.0
06 18:15 NE 6 16.09 Overcast OVC024 7 2.1 71% 76.5 0.0
06 17:55 NE 11 16.09 Overcast OVC022 7.4 2.6 72% 6 76.5 0.0
06 17:15 E 13 16.09 Overcast BKN019 OVC023 7.1 2.6 73% 5 76.5 0.0
06 16:55 E 11 16.09 Overcast BKN020 OVC024 7.1 2.7 74% 5 76.5 0.0
06 16:35 E 13 16.09 Overcast OVC018 6.8 2.7 75% 5 76.5 0.0
06 16:15 E 13 16.09 Overcast OVC018 6.5 2.8 77% 4 76.5 0.0
06 15:55 SE 13 16.09 Overcast OVC018 6.2 2.5 77% 4 76.53 0.0
06 15:35 SE 15 16.09 Overcast OVC018 6 2.9 81% 3 76.53 0.0
06 15:15 SE 17 16.09 Overcast OVC020 5.6 2.9 83% 3 76.53 0.0
06 14:55 E 19 16.09 Overcast SCT008 OVC020 5.5 3.3 86% 2 76.5 0.0
06 14:35 E 19 16.09 Overcast SCT008 SCT012 OVC020 5 3.6 91% 2 76.5 0.0
06 14:15 E 19 16.09 Overcast BKN008 BKN014 OVC020 4.8 3.7 93% 1 76.53 0.0
06 13:55 E 19 16.09 Light Drizzle SCT006 OVC017 4.7 3.5 92% 1 76.53 0.0
06 13:35 E 17 16.09 Light Drizzle BKN006 OVC014 4.7 3.7 93% 1 76.56 0.0
06 13:15 E 20 8.05 Fog/Mist SCT008 BKN014 OVC020 4.8 3.7 93% 1 76.56 0.0
06 12:55 E 24 16.09 Overcast OVC014 4.7 2.9 4.8 2.9 88% 1 76.56 0.0 0.08
06 12:35 E 20 16.09 Overcast BKN012 OVC016 4.6 3 90% 1 76.56 0.0
06 12:15 E 22 16.09 Overcast OVC013 4.4 2.9 90% 0 76.56 0.0
06 11:55 E 22 16.09 Overcast SCT009 OVC013 4.3 2.9 91% 0 76.53 0.0
06 11:35 E 20 16.09 Overcast BKN007 OVC013 4.2 2.9 91% 0 76.5 0.0
06 11:15 E 19 16.09 Overcast OVC007 4.1 3.2 94% 0 76.5 0.0
06 10:55 E 26 16.09 Overcast OVC007 3.8 3 95% -1 76.48 0.0 0.03
06 10:35 E 26 8.05 Fog/Mist OVC005 3.6 3.1 97% -1 76.45 0.0 0.03
06 10:15 E 22 6.44 Fog/Mist OVC005 3.9 3.4 97% -0 76.43 0.0 0.03
06 09:55 E 24 6.44 Light Drizzle Fog/Mist OVC003 3.5 3 97% -1 76.45 0.0 0.05
06 09:35 E 24 6.44 Light Drizzle Fog/Mist OVC003 3.4 2.9 97% -1 76.45 0.0
06 09:15 E 22 4.83 Drizzle Fog/Mist OVC003 3.3 2.9 97% -1 76.45 0.0
06 08:55 E 22 8.05 Light Drizzle Fog/Mist OVC003 3.2 2.8 97% -1 76.45 0.0 0.03
06 08:35 SE 20 16.09 Light Drizzle OVC003 3.2 2.8 97% -1 76.43 0.0 0.03
06 08:15 SE 26 11.27 Drizzle OVC003 3.1 2.7 97% -2 76.43 0.0
06 07:55 SE 20 8.05 Light Drizzle Fog/Mist BKN003 OVC007 3 2.7 98% -1 76.43 0.0 0.03
06 07:35 SE 26 11.27 Fog/Mist BKN003 OVC008 3 2.6 97% -2 76.4 0.0 0.03
06 07:15 E 22 4.83 Light Drizzle Fog/Mist OVC003 3.1 2.7 97% -1 76.35 0.0 0.03
06 06:55 SE 22 6.44 Fog/Mist BKN003 OVC007 2.9 2.5 5.2 2.9 97% -1 76.35 0.0
06 06:35 E 24 8.05 Light Drizzle Fog/Mist OVC003 3.3 2.8 97% -1 76.33 0.0
06 06:15 E 20 5.63 Light Drizzle Fog/Mist OVC003 3.3 2.8 97% -1 76.3 0.0
06 05:55 E 19 4.02 Light Drizzle Fog/Mist OVC003 3.3 2.8 97% -1 76.3 0.0
06 05:35 E 19 4.02 Light Drizzle Fog/Mist OVC003 3.3 2.7 96% -1 76.28 0.0
06 05:15 E 19 4.83 Light Drizzle Fog/Mist OVC003 3.3 2.6 95% -1 76.28 0.0
06 04:55 E 24 8.05 Light Drizzle Fog/Mist OVC005 3.6 2.5 93% -1 76.25 0.0
06 04:35 E 20 16.09 Overcast OVC007 4 2.4 89% 0 76.25 0.0
06 04:15 E 19 16.09 Overcast OVC007 4.1 2.2 88% 0 76.23 0.0
06 03:55 E 17 16.09 Overcast OVC009 4.1 1.9 86% 1 76.25 0.0
06 03:35 E 20 16.09 Overcast OVC009 4.2 1.8 85% 0 76.23 0.0
06 03:15 E 24 16.09 Overcast OVC009 4.2 1.8 85% -0 76.23 0.0
06 02:55 E 26 16.09 Overcast OVC011 4.3 1.6 83% -0 76.23 0.0
06 02:35 E 24 G 30 16.09 Overcast OVC011 4.5 1.5 81% 0 76.25 0.0
06 02:15 E 22 16.09 Overcast OVC011 4.7 1.7 81% 1 76.28 0.0
06 01:55 E 24 16.09 Overcast BKN013 OVC018 4.9 1.9 81% 1 76.28 0.0
06 01:35 E 28 16.09 Overcast SCT013 OVC018 5 1.9 81% 1 76.25 0.0
06 01:15 E 24 16.09 Overcast OVC018 5.1 1.9 80% 1 76.28 0.0
06 00:55 NE 26 16.09 Overcast OVC020 5.2 1.8 10.6 5.2 79% 1 76.23 0.0
06 00:35 NE 24 16.09 Overcast OVC020 5.5 2.1 79% 2 76.23 0.0
06 00:15 NE 26 16.09 Light Rain OVC022 5.4 2.3 81% 1 76.17 0.0
05 23:55 E 24 16.09 Light Rain OVC022 5.7 2.3 79% 2 76.17 0.0
05 23:35 NE 24 16.09 Light Rain OVC026 6.4 1.6 72% 3 76.17 0.0
05 23:15 E 22 16.09 Overcast OVC028 6.6 1.7 71% 3 76.15 0.0
05 22:55 NE 22 16.09 Overcast OVC026 6.8 1.7 70% 3 76.15 0.0
05 22:35 NE 20 16.09 Overcast OVC026 7.2 2 70% 4 76.17 0.0
05 22:15 E 22 16.09 Overcast OVC029 8.1 2.3 67% 5 76.1 0.0
05 21:55 E 15 16.09 Overcast OVC031 8.4 3.2 70% 6 76.07 0.0
05 21:35 E 13 16.09 Overcast OVC033 8.5 3.6 72% 7 76.02 0.0
05 21:15 E 11 16.09 Overcast OVC035 8.5 3.3 70% 7 76.02 0.0
05 20:55 E 15 16.09 Overcast OVC035 8.5 3.2 70% 6 76 0.0
05 20:35 E 17 11.27 Overcast OVC035 8.6 3.1 69% 6 75.97 0.0
05 20:15 SE 20 16.09 Light Rain BKN035 BKN042 OVC070 8.9 2.6 65% 6 75.95 0.0
05 19:55 E 15 16.09 Light Drizzle OVC037 9.3 2.4 62% 7 75.97 0.0
05 19:35 E 19 16.09 Light Rain OVC037 9.8 2.1 59% 8 75.97 0.0
05 19:15 E 17 16.09 Overcast OVC037 10.3 1.6 55% 76 0.0
05 18:55 E 13 16.09 Overcast OVC037 10.5 1.2 12.6 10.3 53% 76 0.0
Date Time (cdt) Wind (kph) Vis. (km) Weather Sky Cond. Air Dwpt Max. Min. Relative Humidity Wind Chill (°C) Heat Index (°C) altimeter (cm) sea level (mb) 1 hr 3 hr 6 hr
6 hour
Temperature (ºC) Pressure Precipitation (cm)